Time;durP1;ratioP1;P1;durP2;ratioP2;P2;SDS_P1;SDS_P2;PMS_P1;PMS_P2;Temp;Humidity;BMP_temperature;BMP_pressure;BME280_temperature;BME280_humidity;BME280_pressure;Samples;Min_cycle;Max_cycle;Signal;HPM_P1;HPM_P2
2023/10/19 00:00:19;;;;;;;33.58;26.38;;;;;;;;;;5002820;28;20253;-83
2023/10/19 00:02:51;;;;;;;35.42;25.67;;;;;;;;;;5012874;28;20212;-84
2023/10/19 00:05:20;;;;;;;34.92;26.35;;;;;;;;;;5039437;28;20240;-84
2023/10/19 00:07:47;;;;;;;35.78;26.45;;;;;;;;;;5005346;28;20229;-83
2023/10/19 00:10:16;;;;;;;35.85;27.20;;;;;;;;;;5018703;28;20217;-83
2023/10/19 00:12:44;;;;;;;36.30;26.10;;;;;;;;;;4988183;28;20206;-83
2023/10/19 00:15:14;;;;;;;40.00;26.40;;;;;;;;;;5018950;28;20191;-84
2023/10/19 00:17:44;;;;;;;34.15;26.27;;;;;;;;;;5030051;28;20190;-84
2023/10/19 00:20:36;;;;;;;36.47;27.17;;;;;;;;;;5004990;28;20206;-84
2023/10/19 00:23:05;;;;;;;41.08;28.65;;;;;;;;;;5031251;28;20195;-84
2023/10/19 00:25:34;;;;;;;30.08;24.83;;;;;;;;;;5035548;28;20225;-84
2023/10/19 00:28:04;;;;;;;30.55;24.80;;;;;;;;;;5019236;28;20210;-84
2023/10/19 00:30:35;;;;;;;35.55;26.50;;;;;;;;;;5008044;28;20227;-84
2023/10/19 00:33:05;;;;;;;35.78;26.05;;;;;;;;;;5013920;28;20205;-84
2023/10/19 00:35:42;;;;;;;31.25;24.45;;;;;;;;;;5022875;28;20267;-84
2023/10/19 00:38:27;;;;;;;33.47;26.30;;;;;;;;;;5023989;28;20194;-84
2023/10/19 00:40:59;;;;;;;37.90;26.35;;;;;;;;;;4999765;28;20184;-84
2023/10/19 00:43:32;;;;;;;35.10;25.77;;;;;;;;;;4977564;28;20261;-84
2023/10/19 00:46:08;;;;;;;34.05;25.45;;;;;;;;;;5018476;28;20203;-84
2023/10/19 00:48:36;;;;;;;34.55;25.92;;;;;;;;;;5018472;28;20198;-84
2023/10/19 00:51:13;;;;;;;34.60;26.15;;;;;;;;;;5002327;28;20222;-84
2023/10/19 00:53:42;;;;;;;36.47;27.60;;;;;;;;;;5031200;28;20248;-84
2023/10/19 00:56:11;;;;;;;39.70;27.70;;;;;;;;;;5004789;28;20233;-84
2023/10/19 00:58:41;;;;;;;32.35;25.00;;;;;;;;;;5011694;28;20221;-84
2023/10/19 01:01:09;;;;;;;36.13;26.30;;;;;;;;;;5017738;28;20210;-84
2023/10/19 01:03:39;;;;;;;36.85;27.50;;;;;;;;;;5029281;28;20241;-84
2023/10/19 01:06:12;;;;;;;33.08;25.13;;;;;;;;;;5037322;28;20221;-84
2023/10/19 01:08:45;;;;;;;36.17;28.40;;;;;;;;;;5028863;28;20210;-84
2023/10/19 01:11:15;;;;;;;37.42;26.75;;;;;;;;;;5036935;28;20193;-84
2023/10/19 01:13:45;;;;;;;38.45;26.85;;;;;;;;;;5025019;28;20261;-84
2023/10/19 01:16:20;;;;;;;39.70;26.85;;;;;;;;;;5018055;28;20217;-84
2023/10/19 01:18:53;;;;;;;35.03;27.42;;;;;;;;;;5022161;28;20284;-85
2023/10/19 01:21:27;;;;;;;35.83;28.60;;;;;;;;;;5018240;28;20197;-85
2023/10/19 01:23:58;;;;;;;35.38;26.52;;;;;;;;;;5005235;28;20193;-85
2023/10/19 01:26:27;;;;;;;37.15;26.95;;;;;;;;;;5023708;28;20190;-86
2023/10/19 01:29:00;;;;;;;35.22;27.42;;;;;;;;;;5037315;28;20198;-85
2023/10/19 01:31:38;;;;;;;43.97;28.90;;;;;;;;;;5018627;28;20210;-85
2023/10/19 01:34:07;;;;;;;39.35;27.60;;;;;;;;;;5022655;28;20210;-85
2023/10/19 01:36:42;;;;;;;38.80;27.05;;;;;;;;;;5018232;28;20218;-85
2023/10/19 01:39:11;;;;;;;38.80;28.17;;;;;;;;;;5031798;28;20162;-85
2023/10/19 01:41:41;;;;;;;38.15;27.48;;;;;;;;;;5026763;28;20198;-85
2023/10/19 01:44:12;;;;;;;38.45;28.23;;;;;;;;;;5026669;28;20245;-85
2023/10/19 01:46:43;;;;;;;41.22;30.10;;;;;;;;;;5008091;28;20201;-86
2023/10/19 01:49:11;;;;;;;39.80;27.65;;;;;;;;;;5001204;28;20273;-85
2023/10/19 01:51:39;;;;;;;43.53;31.45;;;;;;;;;;5038112;28;20197;-86
2023/10/19 01:54:07;;;;;;;40.60;29.30;;;;;;;;;;5014909;28;20221;-85
2023/10/19 01:56:38;;;;;;;41.92;29.55;;;;;;;;;;5025313;28;20171;-85
2023/10/19 01:59:06;;;;;;;39.80;28.83;;;;;;;;;;5334139;23;20260;-65
2023/10/19 02:01:37;;;;;;;41.85;30.45;;;;;;;;;;5036635;28;20237;-66
2023/10/19 02:04:05;;;;;;;40.15;29.38;;;;;;;;;;5036242;28;20245;-66
2023/10/19 02:06:36;;;;;;;43.15;30.20;;;;;;;;;;5035566;28;20210;-67
2023/10/19 02:09:09;;;;;;;39.90;29.00;;;;;;;;;;5027826;28;20234;-66
2023/10/19 02:11:41;;;;;;;46.17;30.92;;;;;;;;;;5017194;28;20451;-66
2023/10/19 02:14:14;;;;;;;45.45;32.17;;;;;;;;;;5016331;28;20222;-65
2023/10/19 02:16:44;;;;;;;44.38;31.38;;;;;;;;;;5016747;28;20198;-65
2023/10/19 02:19:11;;;;;;;43.05;30.40;;;;;;;;;;5035996;28;20550;-67
2023/10/19 02:21:40;;;;;;;45.17;31.58;;;;;;;;;;5035930;28;20217;-66
2023/10/19 02:24:07;;;;;;;45.83;31.67;;;;;;;;;;5024169;28;20178;-65
2023/10/19 02:26:37;;;;;;;43.40;32.45;;;;;;;;;;5030288;28;20204;-66
2023/10/19 02:29:07;;;;;;;47.00;30.42;;;;;;;;;;5035554;28;20221;-65
2023/10/19 02:31:37;;;;;;;46.15;31.45;;;;;;;;;;5036798;28;20210;-67
2023/10/19 02:34:05;;;;;;;43.40;30.40;;;;;;;;;;5035866;28;20249;-66
2023/10/19 02:36:36;;;;;;;48.30;31.77;;;;;;;;;;5015203;28;20225;-68
2023/10/19 02:39:07;;;;;;;49.72;29.67;;;;;;;;;;5028275;28;20189;-66
2023/10/19 02:41:35;;;;;;;50.78;32.00;;;;;;;;;;5019478;28;20233;-66
2023/10/19 02:44:22;;;;;;;45.97;32.25;;;;;;;;;;5257919;22;20205;-65
2023/10/19 02:46:51;;;;;;;53.45;31.08;;;;;;;;;;5056335;28;20208;-66
2023/10/19 02:49:20;;;;;;;45.97;30.33;;;;;;;;;;5200154;22;20267;-64
2023/10/19 02:51:49;;;;;;;50.92;33.20;;;;;;;;;;5056935;28;20170;-67
2023/10/19 02:54:19;;;;;;;48.87;32.60;;;;;;;;;;5354822;22;20240;-85
2023/10/19 02:56:49;;;;;;;44.60;31.27;;;;;;;;;;5058163;28;20603;-85
2023/10/19 02:59:22;;;;;;;47.50;31.57;;;;;;;;;;5039767;28;20660;-85
2023/10/19 03:01:52;;;;;;;47.13;32.22;;;;;;;;;;5053054;28;20634;-85
2023/10/19 03:04:20;;;;;;;44.80;31.13;;;;;;;;;;5057940;28;20231;-85
2023/10/19 03:06:49;;;;;;;43.43;29.00;;;;;;;;;;5059070;28;20645;-85
2023/10/19 03:09:22;;;;;;;39.47;28.33;;;;;;;;;;5044280;28;20674;-85
2023/10/19 03:11:54;;;;;;;42.77;30.33;;;;;;;;;;5028299;28;20619;-86
2023/10/19 03:14:24;;;;;;;40.00;29.30;;;;;;;;;;5099817;22;20682;-85
2023/10/19 03:16:55;;;;;;;48.30;32.77;;;;;;;;;;5008453;28;20641;-84
2023/10/19 03:19:24;;;;;;;45.60;31.17;;;;;;;;;;5016909;28;20594;-85
2023/10/19 03:21:54;;;;;;;44.73;29.60;;;;;;;;;;5018702;28;20681;-85
2023/10/19 03:24:35;;;;;;;43.03;28.70;;;;;;;;;;5021711;28;20629;-86
2023/10/19 03:27:08;;;;;;;42.70;28.77;;;;;;;;;;5299446;23;20686;-86
2023/10/19 03:32:41;;;;;;;44.63;29.42;;;;;;;;;;5336526;23;20635;-67
2023/10/19 03:35:15;;;;;;;47.20;29.57;;;;;;;;;;5008364;28;20246;-67
2023/10/19 03:37:44;;;;;;;51.30;29.83;;;;;;;;;;5005980;28;20596;-67
2023/10/19 03:40:20;;;;;;;46.28;31.52;;;;;;;;;;4988038;28;20625;-68
2023/10/19 03:45:52;;;;;;;45.22;30.20;;;;;;;;;;5058817;23;20638;-66
2023/10/19 03:48:26;;;;;;;51.83;30.83;;;;;;;;;;4981027;28;20200;-66
2023/10/19 03:50:55;;;;;;;48.90;31.60;;;;;;;;;;4980313;28;20595;-67
2023/10/19 03:53:23;;;;;;;46.87;31.80;;;;;;;;;;4981828;28;20635;-67
2023/10/19 03:55:52;;;;;;;51.50;32.53;;;;;;;;;;4985797;28;20666;-67
2023/10/19 03:58:21;;;;;;;49.70;31.60;;;;;;;;;;4987546;28;20639;-67
2023/10/19 04:00:49;;;;;;;54.47;33.07;;;;;;;;;;4986190;28;20623;-66
2023/10/19 04:03:18;;;;;;;47.73;31.10;;;;;;;;;;4993170;28;20639;-66
2023/10/19 04:05:49;;;;;;;47.10;31.33;;;;;;;;;;4981337;28;20611;-66
2023/10/19 04:08:20;;;;;;;46.17;31.23;;;;;;;;;;4982090;28;20622;-66
2023/10/19 04:11:08;;;;;;;49.70;31.20;;;;;;;;;;4980530;28;20670;-66
2023/10/19 04:13:36;;;;;;;52.90;31.33;;;;;;;;;;4981507;28;20619;-66
2023/10/19 04:16:08;;;;;;;51.43;31.57;;;;;;;;;;4999586;28;20662;-66
2023/10/19 04:18:39;;;;;;;48.20;30.90;;;;;;;;;;4989847;28;20599;-66
2023/10/19 04:21:09;;;;;;;50.15;32.25;;;;;;;;;;4982879;28;20627;-66
2023/10/19 04:23:37;;;;;;;58.15;33.55;;;;;;;;;;4985610;28;20219;-66
2023/10/19 04:26:10;;;;;;;56.63;33.72;;;;;;;;;;4992988;28;20233;-67
2023/10/19 04:28:44;;;;;;;46.13;31.23;;;;;;;;;;4983471;28;20204;-66
2023/10/19 04:31:16;;;;;;;51.37;34.10;;;;;;;;;;4980243;28;20619;-66
2023/10/19 04:33:45;;;;;;;54.13;33.30;;;;;;;;;;4985692;28;20557;-65
2023/10/19 04:36:16;;;;;;;53.67;31.80;;;;;;;;;;4987954;28;20650;-65
2023/10/19 04:38:44;;;;;;;47.67;33.07;;;;;;;;;;4986701;28;20603;-66
2023/10/19 04:41:13;;;;;;;54.20;32.83;;;;;;;;;;4991014;28;20642;-66
2023/10/19 04:43:43;;;;;;;47.83;31.60;;;;;;;;;;4995546;28;20635;-67
2023/10/19 04:46:12;;;;;;;43.70;30.03;;;;;;;;;;4979494;28;20635;-65
2023/10/19 04:48:41;;;;;;;43.73;31.20;;;;;;;;;;4982618;28;20639;-66
2023/10/19 04:51:10;;;;;;;55.08;30.55;;;;;;;;;;4998771;28;20630;-66
2023/10/19 04:53:40;;;;;;;48.97;32.10;;;;;;;;;;4987199;28;20222;-66
2023/10/19 04:56:12;;;;;;;56.63;33.70;;;;;;;;;;4980928;28;20687;-67
2023/10/19 04:58:40;;;;;;;45.27;29.60;;;;;;;;;;4995026;28;20222;-66
2023/10/19 05:01:11;;;;;;;46.97;30.17;;;;;;;;;;4996661;28;20646;-66
2023/10/19 05:03:39;;;;;;;47.87;31.70;;;;;;;;;;4994714;28;20632;-66
2023/10/19 05:06:09;;;;;;;45.83;30.00;;;;;;;;;;4981869;28;20652;-66
2023/10/19 05:08:37;;;;;;;44.92;31.00;;;;;;;;;;4991334;28;20667;-66
2023/10/19 05:11:07;;;;;;;49.10;32.80;;;;;;;;;;4985238;28;20259;-66
2023/10/19 05:13:37;;;;;;;51.13;30.83;;;;;;;;;;4986892;28;20626;-67
2023/10/19 05:16:05;;;;;;;49.40;31.60;;;;;;;;;;4990967;28;20231;-66
2023/10/19 05:18:34;;;;;;;46.22;31.92;;;;;;;;;;4993558;28;20241;-67
2023/10/19 05:21:02;;;;;;;95.28;84.15;;;;;;;;;;4998893;28;20211;-67
2023/10/19 05:23:30;;;;;;;58.28;40.38;;;;;;;;;;4990912;28;20226;-67
2023/10/19 05:26:02;;;;;;;51.70;32.20;;;;;;;;;;4995227;28;20218;-67
2023/10/19 05:28:32;;;;;;;51.63;34.60;;;;;;;;;;4982001;28;20690;-67
2023/10/19 05:31:00;;;;;;;49.97;30.93;;;;;;;;;;4978631;29;20744;-66
2023/10/19 05:33:29;;;;;;;47.00;31.20;;;;;;;;;;4978738;28;20628;-67
2023/10/19 05:35:57;;;;;;;53.00;30.17;;;;;;;;;;4980478;28;20679;-67
2023/10/19 05:38:27;;;;;;;48.43;31.17;;;;;;;;;;4990694;28;20631;-67
2023/10/19 05:40:55;;;;;;;47.37;30.60;;;;;;;;;;4978949;29;20581;-66
2023/10/19 05:43:24;;;;;;;45.58;29.88;;;;;;;;;;4977744;28;20646;-67
2023/10/19 05:45:53;;;;;;;54.80;36.70;;;;;;;;;;4980949;28;20235;-67
2023/10/19 05:48:23;;;;;;;53.90;31.15;;;;;;;;;;4977561;28;20622;-68
2023/10/19 05:50:51;;;;;;;56.08;32.72;;;;;;;;;;4982085;28;20199;-67
2023/10/19 05:53:22;;;;;;;56.53;32.17;;;;;;;;;;4982390;28;20211;-67
2023/10/19 05:55:50;;;;;;;49.37;30.50;;;;;;;;;;4985081;28;20671;-66
2023/10/19 05:58:18;;;;;;;53.73;31.00;;;;;;;;;;4987054;28;20654;-67
2023/10/19 06:00:47;;;;;;;53.70;33.00;;;;;;;;;;4985016;28;20639;-66
2023/10/19 06:03:16;;;;;;;51.00;30.90;;;;;;;;;;4984595;28;20646;-66
2023/10/19 06:05:44;;;;;;;53.75;33.58;;;;;;;;;;4985995;28;20971;-67
2023/10/19 06:08:14;;;;;;;47.60;29.70;;;;;;;;;;4987393;28;20219;-66
2023/10/19 06:10:42;;;;;;;45.40;29.23;;;;;;;;;;4986329;28;20666;-67
2023/10/19 06:13:10;;;;;;;43.43;28.03;;;;;;;;;;4986442;28;20647;-66
2023/10/19 06:15:38;;;;;;;44.77;28.37;;;;;;;;;;4986542;28;20681;-66
2023/10/19 06:18:07;;;;;;;49.13;31.77;;;;;;;;;;5014694;23;20666;-86
2023/10/19 06:20:36;;;;;;;44.72;30.40;;;;;;;;;;4989689;28;20653;-86
2023/10/19 06:23:05;;;;;;;47.43;31.17;;;;;;;;;;4986104;28;20196;-86
2023/10/19 06:25:35;;;;;;;47.77;30.20;;;;;;;;;;4986034;28;20593;-86
2023/10/19 06:28:03;;;;;;;46.27;29.77;;;;;;;;;;4983727;28;20640;-86
2023/10/19 06:30:32;;;;;;;48.27;30.23;;;;;;;;;;4987055;28;20644;-85
2023/10/19 06:33:02;;;;;;;48.37;31.30;;;;;;;;;;4991249;28;20618;-87
2023/10/19 06:35:31;;;;;;;45.90;30.93;;;;;;;;;;4974024;28;20619;-86
2023/10/19 06:38:01;;;;;;;42.72;29.05;;;;;;;;;;4996882;28;20609;-86
2023/10/19 06:40:29;;;;;;;49.70;29.40;;;;;;;;;;4986982;28;20192;-86
2023/10/19 06:42:57;;;;;;;47.03;30.27;;;;;;;;;;4973562;28;20644;-85
2023/10/19 06:45:26;;;;;;;47.93;31.97;;;;;;;;;;4982696;28;20956;-85
2023/10/19 06:47:55;;;;;;;55.10;32.23;;;;;;;;;;4988044;28;20632;-87
2023/10/19 06:50:24;;;;;;;47.23;31.00;;;;;;;;;;4984423;28;20615;-86
2023/10/19 06:52:54;;;;;;;41.67;30.65;;;;;;;;;;4985515;28;20612;-86
2023/10/19 06:55:23;;;;;;;44.67;29.87;;;;;;;;;;4989628;28;20207;-85
2023/10/19 06:57:52;;;;;;;45.70;30.47;;;;;;;;;;4986687;28;20663;-86
2023/10/19 07:00:21;;;;;;;50.47;31.97;;;;;;;;;;4992567;28;20625;-86
2023/10/19 07:02:50;;;;;;;43.33;30.20;;;;;;;;;;4990194;28;20634;-87
2023/10/19 07:05:21;;;;;;;44.37;31.87;;;;;;;;;;4993482;28;20694;-86
2023/10/19 07:07:51;;;;;;;45.40;30.27;;;;;;;;;;4999803;28;20611;-86
2023/10/19 07:17:05;;;;;;;41.23;28.10;;;;;;;;;;4953581;29;20661;-65
2023/10/19 07:19:33;;;;;;;38.47;30.07;;;;;;;;;;4956978;28;20977;-66
2023/10/19 07:22:04;;;;;;;44.17;29.67;;;;;;;;;;4949649;29;20639;-66
2023/10/19 07:24:36;;;;;;;45.80;29.13;;;;;;;;;;4944158;29;21153;-66
2023/10/19 07:27:07;;;;;;;37.90;27.20;;;;;;;;;;4947191;29;20624;-65
2023/10/19 07:29:35;;;;;;;37.77;28.50;;;;;;;;;;4955063;29;21184;-65
2023/10/19 07:32:05;;;;;;;35.60;26.80;;;;;;;;;;4933006;29;20691;-65
2023/10/19 07:34:34;;;;;;;32.70;25.43;;;;;;;;;;4955905;29;21008;-65
2023/10/19 07:37:03;;;;;;;41.87;28.67;;;;;;;;;;4956107;29;21006;-66
2023/10/19 07:39:33;;;;;;;35.37;26.80;;;;;;;;;;4955806;29;20635;-65
2023/10/19 07:42:05;;;;;;;37.13;26.57;;;;;;;;;;4955528;29;21192;-65
2023/10/19 07:44:34;;;;;;;41.60;28.00;;;;;;;;;;4924549;29;20669;-66
2023/10/19 07:47:06;;;;;;;42.60;28.60;;;;;;;;;;4934266;29;21198;-66
2023/10/19 07:49:34;;;;;;;36.87;26.70;;;;;;;;;;4936325;29;20975;-66
2023/10/19 07:52:02;;;;;;;46.00;26.73;;;;;;;;;;4937985;29;20628;-65
2023/10/19 07:54:31;;;;;;;41.37;26.33;;;;;;;;;;4937206;29;20613;-65
2023/10/19 07:57:03;;;;;;;35.97;25.50;;;;;;;;;;4938007;29;20678;-65
2023/10/19 07:59:31;;;;;;;38.77;26.83;;;;;;;;;;4930368;29;20604;-65
2023/10/19 08:02:01;;;;;;;39.93;26.33;;;;;;;;;;4937227;29;20650;-66
2023/10/19 08:04:31;;;;;;;33.67;24.33;;;;;;;;;;4934221;29;20635;-65
2023/10/19 08:06:59;;;;;;;42.47;27.97;;;;;;;;;;4936360;29;20632;-66
2023/10/19 08:09:31;;;;;;;38.93;26.50;;;;;;;;;;4937334;29;20709;-65
2023/10/19 08:11:59;;;;;;;35.23;25.20;;;;;;;;;;4937927;29;20613;-64
2023/10/19 08:14:28;;;;;;;32.70;24.40;;;;;;;;;;4937244;29;20632;-65
2023/10/19 08:16:56;;;;;;;32.20;24.03;;;;;;;;;;4935467;29;20746;-65
2023/10/19 08:19:24;;;;;;;30.47;23.57;;;;;;;;;;4930429;29;20621;-65
2023/10/19 08:21:54;;;;;;;24.30;21.43;;;;;;;;;;4930693;29;21002;-65
2023/10/19 08:24:23;;;;;;;30.17;22.10;;;;;;;;;;4927094;29;20662;-65
2023/10/19 08:26:51;;;;;;;28.87;22.57;;;;;;;;;;4917800;29;20625;-65
2023/10/19 08:29:19;;;;;;;24.83;20.50;;;;;;;;;;4917757;29;20621;-65
2023/10/19 08:31:48;;;;;;;24.40;19.97;;;;;;;;;;4919812;29;20646;-65
2023/10/19 08:34:17;;;;;;;30.63;20.47;;;;;;;;;;4931886;29;20640;-65
2023/10/19 08:36:45;;;;;;;31.77;20.67;;;;;;;;;;4929890;29;20661;-65
2023/10/19 08:39:15;;;;;;;22.67;18.93;;;;;;;;;;4925897;29;20629;-66
2023/10/19 08:41:43;;;;;;;28.00;19.80;;;;;;;;;;4930394;29;20639;-64
2023/10/19 08:44:15;;;;;;;27.33;23.30;;;;;;;;;;4931096;29;20656;-62
2023/10/19 08:46:44;;;;;;;26.33;21.17;;;;;;;;;;4924222;29;21055;-63
2023/10/19 08:49:13;;;;;;;29.40;20.13;;;;;;;;;;4937968;29;20622;-64
2023/10/19 08:51:45;;;;;;;21.97;19.23;;;;;;;;;;4936595;29;20648;-64
2023/10/19 08:54:15;;;;;;;24.00;18.87;;;;;;;;;;4933261;29;20676;-63
2023/10/19 08:56:44;;;;;;;24.73;19.10;;;;;;;;;;4919486;29;21001;-62
2023/10/19 08:59:13;;;;;;;23.37;17.53;;;;;;;;;;4919146;29;20710;-63
2023/10/19 09:01:43;;;;;;;21.90;17.53;;;;;;;;;;4918134;29;20616;-64
2023/10/19 09:04:13;;;;;;;19.67;17.43;;;;;;;;;;4935865;29;20625;-62
2023/10/19 09:06:42;;;;;;;18.10;15.03;;;;;;;;;;4935325;29;20751;-63
2023/10/19 09:09:16;;;;;;;20.00;15.57;;;;;;;;;;4936042;29;20638;-63
2023/10/19 09:11:46;;;;;;;21.83;15.10;;;;;;;;;;4931164;29;20613;-64
2023/10/19 09:14:14;;;;;;;15.20;13.30;;;;;;;;;;4936711;29;21288;-62
2023/10/19 09:16:56;;;;;;;15.10;13.60;;;;;;;;;;4936197;29;20634;-63
2023/10/19 09:19:37;;;;;;;15.97;14.27;;;;;;;;;;4919860;29;20613;-62
2023/10/19 09:22:07;;;;;;;15.20;12.93;;;;;;;;;;4917793;29;20607;-63
2023/10/19 09:24:36;;;;;;;25.30;21.70;;;;;;;;;;4917311;29;20591;-63
2023/10/19 09:27:07;;;;;;;14.73;12.83;;;;;;;;;;4917451;29;20640;-62
2023/10/19 09:29:36;;;;;;;13.30;12.10;;;;;;;;;;4926692;29;21452;-64
2023/10/19 09:32:05;;;;;;;14.37;12.80;;;;;;;;;;4934324;29;21217;-63
2023/10/19 09:34:34;;;;;;;14.40;12.90;;;;;;;;;;4917353;29;20655;-63
2023/10/19 09:37:03;;;;;;;13.07;11.70;;;;;;;;;;4922923;29;20668;-63
2023/10/19 09:39:34;;;;;;;15.87;12.30;;;;;;;;;;4936035;29;20620;-63
2023/10/19 09:42:05;;;;;;;12.93;11.63;;;;;;;;;;4935802;29;20588;-64
2023/10/19 09:44:40;;;;;;;14.73;12.77;;;;;;;;;;4935563;29;20644;-63
2023/10/19 09:47:12;;;;;;;15.70;13.23;;;;;;;;;;4935645;29;20600;-61
2023/10/19 09:49:41;;;;;;;13.07;11.77;;;;;;;;;;4921037;29;20609;-64
2023/10/19 09:52:10;;;;;;;14.73;13.23;;;;;;;;;;4929114;29;20658;-64
2023/10/19 09:54:47;;;;;;;15.20;12.20;;;;;;;;;;4935242;29;20695;-63
2023/10/19 09:57:18;;;;;;;14.53;12.50;;;;;;;;;;4936104;29;20636;-63
2023/10/19 09:59:51;;;;;;;23.17;17.83;;;;;;;;;;4936242;29;20665;-63
2023/10/19 10:02:22;;;;;;;131.87;55.17;;;;;;;;;;4935306;29;20966;-63
2023/10/19 10:04:50;;;;;;;15.50;13.00;;;;;;;;;;4933461;29;20585;-64
2023/10/19 10:07:19;;;;;;;19.53;12.37;;;;;;;;;;4932418;29;21241;-64
2023/10/19 10:09:47;;;;;;;35.80;24.47;;;;;;;;;;4922249;29;20633;-63
2023/10/19 10:12:23;;;;;;;31.00;20.90;;;;;;;;;;4929728;29;20675;-64
2023/10/19 10:14:57;;;;;;;12.80;11.43;;;;;;;;;;4931155;29;20628;-64
2023/10/19 10:17:26;;;;;;;14.70;13.20;;;;;;;;;;4934567;29;20682;-63
2023/10/19 10:19:57;;;;;;;17.27;12.90;;;;;;;;;;4935370;29;21046;-64
2023/10/19 10:22:26;;;;;;;17.07;13.63;;;;;;;;;;4931118;29;20627;-63
2023/10/19 10:24:57;;;;;;;31.90;19.37;;;;;;;;;;4921797;29;20624;-63
2023/10/19 10:27:25;;;;;;;18.20;12.50;;;;;;;;;;4935374;29;20595;-63
2023/10/19 10:30:06;;;;;;;14.40;12.20;;;;;;;;;;4935589;29;20620;-63
2023/10/19 10:32:48;;;;;;;13.70;12.30;;;;;;;;;;4935832;29;20584;-63
2023/10/19 10:35:35;;;;;;;17.40;12.57;;;;;;;;;;4935106;29;20603;-64
2023/10/19 10:38:05;;;;;;;15.97;12.93;;;;;;;;;;4934685;29;20648;-63
2023/10/19 10:40:43;;;;;;;14.43;12.93;;;;;;;;;;4925578;29;20633;-63
2023/10/19 10:43:11;;;;;;;14.80;12.47;;;;;;;;;;4928644;29;20724;-64
2023/10/19 10:45:41;;;;;;;14.23;12.83;;;;;;;;;;4929484;29;20644;-63
2023/10/19 10:48:13;;;;;;;19.67;13.47;;;;;;;;;;4924249;29;21246;-63
2023/10/19 10:50:42;;;;;;;16.93;12.93;;;;;;;;;;4931136;29;20619;-64
2023/10/19 10:53:11;;;;;;;20.03;15.00;;;;;;;;;;4929454;29;20666;-63
2023/10/19 10:55:40;;;;;;;16.83;13.30;;;;;;;;;;4935146;29;20663;-64
2023/10/19 10:58:08;;;;;;;13.77;12.20;;;;;;;;;;4923634;29;20668;-64
2023/10/19 11:00:46;;;;;;;22.53;15.70;;;;;;;;;;4915637;29;21263;-64
2023/10/19 11:03:15;;;;;;;20.63;14.17;;;;;;;;;;4922972;29;20621;-64
2023/10/19 11:05:45;;;;;;;23.20;15.00;;;;;;;;;;4928741;29;20632;-63
2023/10/19 11:08:14;;;;;;;15.60;13.40;;;;;;;;;;4925047;29;20629;-64
2023/10/19 11:10:44;;;;;;;16.37;14.67;;;;;;;;;;4924724;29;20619;-64
2023/10/19 11:13:13;;;;;;;18.60;15.70;;;;;;;;;;4924619;29;20629;-63
2023/10/19 11:15:48;;;;;;;21.27;16.30;;;;;;;;;;4926146;29;20664;-63
2023/10/19 11:18:31;;;;;;;18.00;15.43;;;;;;;;;;4927586;29;21277;-66
2023/10/19 11:21:04;;;;;;;22.33;15.80;;;;;;;;;;4927017;29;20971;-63
2023/10/19 11:23:39;;;;;;;22.77;17.10;;;;;;;;;;4927709;29;20582;-64
2023/10/19 11:26:08;;;;;;;19.27;15.93;;;;;;;;;;4926153;29;20623;-64
2023/10/19 11:28:38;;;;;;;23.73;16.90;;;;;;;;;;4929698;29;20635;-63
2023/10/19 11:31:16;;;;;;;20.50;16.73;;;;;;;;;;4923543;29;20605;-64
2023/10/19 11:33:48;;;;;;;20.50;15.63;;;;;;;;;;4926530;29;20638;-64
2023/10/19 11:36:17;;;;;;;20.77;17.37;;;;;;;;;;4933381;29;20694;-66
2023/10/19 11:38:46;;;;;;;20.40;18.27;;;;;;;;;;4918615;29;20664;-64
2023/10/19 11:41:15;;;;;;;21.83;19.53;;;;;;;;;;4929940;29;21169;-63
2023/10/19 11:43:47;;;;;;;22.50;17.17;;;;;;;;;;4925797;29;20650;-64
2023/10/19 11:46:16;;;;;;;18.63;16.30;;;;;;;;;;4923990;29;20964;-63
2023/10/19 11:48:44;;;;;;;23.87;17.23;;;;;;;;;;4928869;29;20613;-63
2023/10/19 11:51:14;;;;;;;16.60;14.93;;;;;;;;;;4932472;29;20710;-65
2023/10/19 11:53:44;;;;;;;20.77;16.63;;;;;;;;;;4938393;29;20642;-65
2023/10/19 11:56:12;;;;;;;24.83;17.43;;;;;;;;;;4926518;29;20659;-64
2023/10/19 11:58:41;;;;;;;19.60;16.40;;;;;;;;;;4938333;29;20719;-64
2023/10/19 12:01:12;;;;;;;18.93;16.83;;;;;;;;;;4937887;29;20624;-63
2023/10/19 12:03:40;;;;;;;19.37;17.43;;;;;;;;;;4936202;29;20575;-64
2023/10/19 12:06:09;;;;;;;22.13;16.80;;;;;;;;;;4930671;29;20641;-63
2023/10/19 12:08:40;;;;;;;22.10;14.33;;;;;;;;;;4924784;29;20992;-63
2023/10/19 12:11:15;;;;;;;19.87;14.60;;;;;;;;;;4920242;29;21253;-63
2023/10/19 12:13:44;;;;;;;19.07;15.40;;;;;;;;;;4921028;29;20585;-64
2023/10/19 12:16:14;;;;;;;21.37;15.77;;;;;;;;;;4921693;29;20670;-64
2023/10/19 12:18:43;;;;;;;16.90;14.63;;;;;;;;;;4931114;29;20648;-64
2023/10/19 12:21:12;;;;;;;16.73;14.90;;;;;;;;;;4933135;29;20652;-63
2023/10/19 12:23:43;;;;;;;13.83;12.43;;;;;;;;;;4925401;29;21061;-63
2023/10/19 12:26:12;;;;;;;14.33;11.83;;;;;;;;;;4928672;29;20671;-63
2023/10/19 12:28:40;;;;;;;13.60;12.30;;;;;;;;;;4927412;29;20613;-64
2023/10/19 12:31:10;;;;;;;11.87;10.73;;;;;;;;;;4928330;29;20627;-65
2023/10/19 12:33:39;;;;;;;13.03;11.67;;;;;;;;;;4933731;29;20624;-64
2023/10/19 12:36:24;;;;;;;12.40;10.90;;;;;;;;;;4937134;29;20628;-64
2023/10/19 12:38:54;;;;;;;13.80;12.20;;;;;;;;;;4938258;29;20924;-63
2023/10/19 12:41:23;;;;;;;11.17;10.03;;;;;;;;;;4928355;29;20643;-63
2023/10/19 12:43:52;;;;;;;13.17;11.73;;;;;;;;;;4918550;29;21007;-64
2023/10/19 12:46:24;;;;;;;13.37;12.07;;;;;;;;;;4918306;29;20629;-62
2023/10/19 12:48:52;;;;;;;16.10;11.43;;;;;;;;;;4923811;29;20652;-64
2023/10/19 12:51:23;;;;;;;12.53;11.33;;;;;;;;;;4937041;29;20632;-64
2023/10/19 12:53:53;;;;;;;13.33;11.63;;;;;;;;;;4937239;29;20593;-64
2023/10/19 12:56:24;;;;;;;13.53;12.10;;;;;;;;;;4936836;29;20592;-65
2023/10/19 12:58:52;;;;;;;12.97;11.10;;;;;;;;;;4920284;29;20618;-63
2023/10/19 13:01:21;;;;;;;11.73;10.53;;;;;;;;;;4919992;29;20972;-64
2023/10/19 13:03:50;;;;;;;21.10;11.90;;;;;;;;;;4926532;29;20990;-64
2023/10/19 13:06:19;;;;;;;12.53;11.30;;;;;;;;;;4920872;29;20633;-64
2023/10/19 13:08:47;;;;;;;14.03;12.63;;;;;;;;;;4923461;29;20670;-65
2023/10/19 13:11:18;;;;;;;11.83;10.77;;;;;;;;;;4927952;29;20627;-64
2023/10/19 13:13:46;;;;;;;12.93;11.73;;;;;;;;;;4923821;29;20613;-64
2023/10/19 13:16:16;;;;;;;14.90;12.77;;;;;;;;;;4927550;29;20718;-64
2023/10/19 13:18:45;;;;;;;13.10;11.67;;;;;;;;;;4927580;29;21187;-64
2023/10/19 13:21:16;;;;;;;18.10;12.60;;;;;;;;;;4927140;29;20653;-65
2023/10/19 13:23:46;;;;;;;14.87;13.43;;;;;;;;;;4922336;29;20632;-64
2023/10/19 13:26:17;;;;;;;22.87;17.00;;;;;;;;;;4931775;29;20628;-64
2023/10/19 13:28:48;;;;;;;17.73;15.83;;;;;;;;;;4934060;29;20627;-64
2023/10/19 13:31:19;;;;;;;15.60;13.90;;;;;;;;;;4934652;29;20644;-64
2023/10/19 13:33:47;;;;;;;18.40;14.90;;;;;;;;;;4916783;29;21376;-64
2023/10/19 13:36:16;;;;;;;16.03;14.03;;;;;;;;;;4917250;29;20627;-64
2023/10/19 13:38:44;;;;;;;15.33;13.73;;;;;;;;;;4917355;29;20991;-64
2023/10/19 13:41:13;;;;;;;15.30;13.10;;;;;;;;;;4921476;29;20639;-64
2023/10/19 13:43:42;;;;;;;15.90;14.30;;;;;;;;;;4921444;29;20668;-64
2023/10/19 13:46:11;;;;;;;16.67;14.90;;;;;;;;;;4935878;29;20675;-64
2023/10/19 13:48:40;;;;;;;17.53;15.50;;;;;;;;;;4932115;29;20632;-64
2023/10/19 13:51:13;;;;;;;15.93;14.43;;;;;;;;;;4935472;29;20974;-64
2023/10/19 13:53:41;;;;;;;16.63;14.63;;;;;;;;;;4926567;29;20632;-64
2023/10/19 13:56:10;;;;;;;22.27;15.23;;;;;;;;;;4919116;29;21026;-64
2023/10/19 13:58:38;;;;;;;16.37;14.57;;;;;;;;;;4920821;29;20655;-64
2023/10/19 14:01:09;;;;;;;17.57;15.67;;;;;;;;;;4926755;29;20721;-65
2023/10/19 14:03:39;;;;;;;16.60;14.90;;;;;;;;;;4924867;29;20638;-64
2023/10/19 14:06:07;;;;;;;18.73;16.43;;;;;;;;;;4925724;29;20633;-64
2023/10/19 14:08:35;;;;;;;17.37;15.70;;;;;;;;;;4925776;29;20643;-63
2023/10/19 14:11:03;;;;;;;26.20;17.80;;;;;;;;;;4926883;29;20756;-64
2023/10/19 14:13:32;;;;;;;21.30;18.53;;;;;;;;;;4929086;29;21159;-63
2023/10/19 14:16:00;;;;;;;20.67;17.23;;;;;;;;;;4929102;29;20660;-63
2023/10/19 14:18:28;;;;;;;20.70;18.00;;;;;;;;;;4935208;29;21216;-64
2023/10/19 14:20:58;;;;;;;20.67;17.13;;;;;;;;;;4932595;29;20637;-65
2023/10/19 14:23:27;;;;;;;37.33;23.80;;;;;;;;;;4919686;29;20633;-64
2023/10/19 14:25:55;;;;;;;29.13;26.13;;;;;;;;;;4917946;29;21035;-63
2023/10/19 14:28:23;;;;;;;27.60;24.80;;;;;;;;;;4924777;29;20987;-63
2023/10/19 14:30:52;;;;;;;28.70;20.23;;;;;;;;;;4926298;29;21027;-63
2023/10/19 14:33:20;;;;;;;18.83;16.70;;;;;;;;;;4925125;29;20676;-64
2023/10/19 14:35:48;;;;;;;18.60;16.40;;;;;;;;;;4926628;29;20633;-64
2023/10/19 14:38:19;;;;;;;25.73;19.13;;;;;;;;;;4923947;29;20626;-64
2023/10/19 14:40:48;;;;;;;19.60;16.93;;;;;;;;;;4925648;29;20621;-64
2023/10/19 14:43:16;;;;;;;19.63;17.10;;;;;;;;;;4925459;29;20664;-65
2023/10/19 14:45:44;;;;;;;22.17;16.93;;;;;;;;;;4922599;29;20665;-64